Latest Coastal Weather Observations for Mallacoota

IDV60701

Issued at 10:01 pm EST Tuesday 31 May 2016 (issued every 10 minutes, with the page automatically refreshed every 10 minutes)

About coastal observations | Map of coastal stations | Coastal observations for VIC | Marine services | Other Formats
Station Details ID: 084084 Name: MALLACOOTA Lat: -37.60 Lon: 149.73 Height: 22.0 m
Data from the previous 72 hours. | See also: Recent months at Mallacoota
Date/Time
EST
Temp

°C
Wind Pressure Rain
since 9am
mm
Weather Cloud Vis
km
Sea
Height
m
Swell
Dir
 
Speed
knots
Gust
knots
hPa Trend Height
m
Period
s
Dir
31/10:00pm 6.9 WNW 6 8 1030.8 - 0.0 - - - - - - -
31/09:30pm 7.2 WNW 6 8 1030.8 - 0.0 - - - - - - -
31/09:00pm 6.7 WNW 4 6 1031.1 - 0.0 - - - - - - -
31/08:30pm 7.1 W 3 4 1031.0 - 0.0 - - - - - - -
31/08:00pm 7.7 WNW 5 7 1030.9 - 0.0 - - - - - - -
31/07:30pm 8.3 WNW 5 6 1030.8 - 0.0 - - - - - - -
31/07:00pm 8.6 NNW 1 4 1030.8 - 0.0 - - - - - - -
31/06:30pm 9.6 N 2 4 1030.6 - 0.0 - - - - - - -
31/06:00pm 13.7 ESE 6 9 1030.4 - 0.0 - - - - - - -
31/05:30pm 13.8 SE 6 9 1030.2 - 0.0 - - - - - - -
31/05:00pm 13.8 ESE 6 9 1030.2 - 0.0 - - - - - - -
31/04:30pm 14.0 ESE 6 8 1030.0 - 0.0 - - - - - - -
31/04:00pm 14.6 ESE 6 9 1030.1 - 0.0 - - - - - - -
31/03:30pm 15.1 ESE 6 9 1030.1 - 0.0 - - - - - - -
31/03:00pm 15.4 ESE 6 9 1030.2 - 0.0 - - - - - - -
31/02:30pm 15.5 ESE 7 10 1030.0 - 0.0 - - - - - - -
31/02:00pm 16.1 SE 7 10 1030.0 - 0.0 - - - - - - -
31/01:30pm 16.3 SE 6 9 1030.2 - 0.0 - - - - - - -
31/01:00pm 16.2 SE 4 7 1030.4 - 0.0 - - - - - - -
31/12:30pm 15.6 S 4 5 1030.5 - 0.0 - - - - - - -
31/12:00pm 15.2 SSE 4 5 1030.9 - 0.0 - - - - - - -
31/11:30am 15.4 SE 3 4 1031.0 - 0.0 - - - - - - -
31/11:00am 15.0 SSE 4 5 1031.4 - 0.0 - - - - - - -
31/10:30am 15.5 SE 3 4 1031.7 - 0.0 - - - - - - -
31/10:00am 15.0 NNW 4 5 1031.7 - 0.0 - - - - - - -
31/09:30am 13.5 WNW 5 6 1031.6 - 0.0 - - - - - - -
31/09:00am 11.7 WNW 6 7 1031.7 - 0.0 - - - - - - -
31/08:30am 10.1 NW 5 7 1031.4 - 0.0 - - - - - - -
31/08:00am 9.2 WNW 6 7 1031.1 - 0.0 - - - - - - -
31/07:30am 8.4 WNW 5 7 1030.9 - 0.0 - - - - - - -
31/07:00am 8.4 WNW 6 7 1030.6 - 0.0 - - - - - - -
31/06:30am 8.7 NW 6 7 1030.4 - 0.0 - - - - - - -
31/06:00am 8.9 NW 4 6 1030.2 - 0.0 - - - - - - -
31/05:30am 9.3 WNW 5 7 1029.9 - 0.0 - - - - - - -
31/05:00am 9.4 NW 6 8 1029.8 - 0.0 - - - - - - -
31/04:30am 9.7 WNW 6 7 1029.7 - 0.0 - - - - - - -
31/04:00am 9.8 NW 5 7 1029.5 - 0.0 - - - - - - -
31/03:30am 10.3 WNW 5 7 1029.5 - 0.0 - - - - - - -
31/03:00am 10.6 WNW 5 7 1029.6 - 0.0 - - - - - - -
31/02:30am 10.7 WNW 6 8 1029.5 - 0.0 - - - - - - -
31/02:00am 10.8 NW 5 7 1029.6 - 0.0 - - - - - - -
31/01:30am 10.6 NW 5 7 1029.6 - 0.0 - - - - - - -
31/01:00am 10.6 WNW 5 7 1029.5 - 0.0 - - - - - - -
31/12:30am 10.5 WNW 5 7 1029.5 - 0.0 - - - - - - -
31/12:00am 10.3 NW 5 6 1029.7 - 0.0 - - - - - - -
 
Date/Time
EST
Temp

°C
Wind Pressure Rain
since 9am
mm
Weather Cloud Vis
km
Sea
Height
m
Swell
Dir
 
Speed
knots
Gust
knots
hPa Trend Height
m
Period
s
Dir
30/11:30pm 10.0 WNW 5 7 1029.6 - 0.0 - - - - - - -
30/11:00pm 10.0 WNW 5 8 1029.4 - 0.0 - - - - - - -
30/10:30pm 10.2 WNW 5 8 1029.3 - 0.0 - - - - - - -
30/10:00pm 10.6 WNW 6 8 1029.1 - 0.0 - - - - - - -
30/09:30pm 10.8 WNW 4 7 1029.1 - 0.0 - - - - - - -
30/09:00pm 11.0 WNW 5 6 1029.0 - 0.0 - - - - - - -
30/08:30pm 11.1 WNW 5 8 1028.7 - 0.0 - - - - - - -
30/08:00pm 11.1 W 5 8 1028.5 - 0.0 - - - - - - -
30/07:30pm 10.7 W 5 7 1028.4 - 0.0 - - - - - - -
30/07:00pm 10.6 WNW 5 6 1028.1 - 0.0 - - - - - - -
30/06:30pm 10.7 WNW 4 6 1027.9 - 0.0 - - - - - - -
30/06:00pm 10.6 WNW 4 6 1027.7 - 0.0 - - - - - - -
30/05:30pm 11.2 W 4 6 1027.2 - 0.0 - - - - - - -
30/05:00pm 11.5 WNW 4 5 1026.8 - 0.0 - - - - - - -
30/04:30pm 12.1 W 5 6 1026.5 - 0.0 - - - - - - -
30/04:00pm 13.4 W 4 7 1026.2 - 0.0 - - - - - - -
30/03:30pm 13.5 WSW 6 9 1026.0 - 0.0 - - - - - - -
30/03:00pm 14.1 WSW 7 11 1025.9 - 0.0 - - - - - - -
30/02:30pm 14.2 WSW 7 12 1025.7 - 0.0 - - - - - - -
30/02:00pm 14.1 WSW 8 14 1025.5 - 0.0 - - - - - - -
30/01:30pm 13.3 WSW 8 12 1025.6 - 0.0 - - - - - - -
30/01:00pm 14.5 W 8 13 1025.5 - 0.0 - - - - - - -
30/12:30pm 13.5 W 7 11 1025.6 - 0.0 - - - - - - -
30/12:00pm 13.9 WSW 9 15 1025.7 - 0.0 - - - - - - -
30/11:30am 12.9 W 8 16 1025.9 - 0.0 - - - - - - -
30/11:00am 12.8 W 8 12 1026.0 - 0.0 - - - - - - -
30/10:30am 12.8 W 7 12 1026.1 - 0.0 - - - - - - -
30/10:00am 12.8 W 10 15 1025.9 - 0.0 - - - - - - -
30/09:30am 12.2 W 8 12 1025.4 - 0.0 - - - - - - -
30/09:00am 11.8 W 10 16 1025.2 - 7.2 - - - - - - -
30/08:30am 11.1 W 9 15 1024.8 - 7.2 - - - - - - -
30/08:00am 10.4 W 9 14 1024.6 - 7.2 - - - - - - -
30/07:30am 10.2 W 9 15 1024.4 - 7.2 - - - - - - -
30/07:00am 9.7 W 9 14 1023.9 - 7.2 - - - - - - -
30/06:30am 9.3 W 9 13 1023.5 - 7.2 - - - - - - -
30/06:00am 9.3 W 9 14 1023.2 - 7.2 - - - - - - -
30/05:30am 9.7 W 8 14 1022.8 - 7.2 - - - - - - -
30/05:00am 9.5 W 9 15 1022.4 - 7.2 - - - - - - -
30/04:30am 9.5 W 9 16 1022.2 - 7.2 - - - - - - -
30/04:00am 9.8 W 8 13 1021.9 - 7.2 - - - - - - -
30/03:30am 9.9 W 9 15 1021.5 - 7.2 - - - - - - -
30/03:00am 9.7 W 9 15 1021.4 - 7.2 - - - - - - -
30/02:30am 10.0 W 9 15 1021.0 - 7.2 - - - - - - -
30/02:00am 10.2 W 10 18 1020.9 - 7.2 - - - - - - -
30/01:30am 10.2 W 10 15 1020.6 - 7.2 - - - - - - -
30/01:00am 9.9 W 9 16 1020.4 - 7.2 - - - - - - -
30/12:30am 9.7 W 10 16 1020.4 - 7.2 - - - - - - -
30/12:00am 9.6 W 9 16 1020.4 - 7.2 - - - - - - -
 
Date/Time
EST
Temp

°C
Wind Pressure Rain
since 9am
mm
Weather Cloud Vis
km
Sea
Height
m
Swell
Dir
 
Speed
knots
Gust
knots
hPa Trend Height
m
Period
s
Dir
29/11:30pm 9.5 W 9 15 1020.3 - 7.2 - - - - - - -
29/11:00pm 9.4 W 8 13 1020.2 - 7.2 - - - - - - -
29/10:30pm 9.3 W 7 11 1020.4 - 7.0 - - - - - - -
29/10:00pm 9.5 SW 5 9 1020.6 - 5.6 - - - - - - -
29/09:30pm 9.9 WSW 7 15 1020.2 - 4.6 - - - - - - -
29/09:00pm 9.7 SW 5 8 1020.1 - 3.6 - - - - - - -
29/08:30pm 9.9 WSW 5 8 1019.7 - 3.4 - - - - - - -
29/08:00pm 9.9 W 5 7 1019.2 - 3.0 - - - - - - -
29/07:30pm 10.0 W 6 9 1018.7 - 2.6 - - - - - - -
29/07:00pm 10.0 WNW 6 10 1018.4 - 2.6 - - - - - - -
29/06:30pm 10.1 WNW 4 7 1018.4 - 1.6 - - - - - - -
29/06:00pm 10.1 WNW 4 6 1018.2 - 1.4 - - - - - - -
29/05:30pm 10.4 WSW 5 8 1017.7 - 0.8 - - - - - - -
29/05:00pm 11.4 W 9 17 1017.2 - 0.0 - - - - - - -
29/04:30pm 12.1 W 10 19 1016.9 - 0.0 - - - - - - -
29/04:00pm 12.4 W 10 19 1016.4 - 0.0 - - - - - - -
29/03:30pm 13.5 WSW 11 21 1016.2 - 0.0 - - - - - - -
29/03:00pm 14.2 WSW 10 22 1016.0 - 0.0 - - - - - - -
29/02:30pm 13.9 W 10 20 1015.4 - 0.0 - - - - - - -
29/02:00pm 13.7 WSW 12 22 1015.3 - 0.0 - - - - - - -
29/01:30pm 13.8 WSW 12 22 1015.0 - 0.0 - - - - - - -
29/01:00pm 13.9 WSW 11 22 1014.9 - 0.0 - - - - - - -
29/12:30pm 14.0 W 11 25 1015.0 - 0.0 - - - - - - -
29/12:00pm 13.8 W 10 17 1015.1 - 0.0 - - - - - - -
29/11:30am 12.9 W 10 18 1015.2 - 0.0 - - - - - - -
29/11:00am 13.0 W 10 19 1015.2 - 0.0 - - - - - - -
29/10:30am 13.1 W 11 26 1015.3 - 0.0 - - - - - - -
29/10:00am 12.7 W 12 23 1014.9 - 0.0 - - - - - - -
29/09:30am 12.2 W 12 22 1014.7 - 0.0 - - - - - - -
29/09:00am 12.0 W 12 23 1014.4 - 22.0 - - - - - - -
29/08:30am 11.8 W 11 20 1014.0 - 22.0 - - - - - - -
29/08:00am 11.2 W 11 23 1013.8 - 22.0 - - - - - - -
29/07:30am 10.5 W 9 16 1013.6 - 22.0 - - - - - - -
29/07:00am 10.2 W 11 20 1013.3 - 22.0 - - - - - - -
29/06:30am 10.1 W 9 15 1013.1 - 22.0 - - - - - - -
29/06:00am 10.3 W 10 18 1012.8 - 22.0 - - - - - - -
29/05:30am 10.3 W 9 13 1012.7 - 22.0 - - - - - - -
29/05:00am 10.3 W 8 14 1012.4 - 22.0 - - - - - - -
29/04:30am 10.4 W 10 17 1012.1 - 22.0 - - - - - - -
29/04:00am 10.6 W 10 20 1011.9 - 22.0 - - - - - - -
29/03:30am 10.5 W 10 17 1011.7 - 22.0 - - - - - - -
29/03:00am 10.6 W 9 20 1011.7 - 22.0 - - - - - - -
29/02:30am 10.4 W 10 19 1011.5 - 22.0 - - - - - - -
29/02:00am 10.2 W 12 18 1011.5 - 22.0 - - - - - - -
29/01:30am 10.0 W 10 18 1011.3 - 22.0 - - - - - - -
29/01:00am 9.9 W 10 18 1011.0 - 22.0 - - - - - - -
29/12:30am 9.8 W 9 17 1011.2 - 22.0 - - - - - - -
29/12:00am 9.7 W 9 15 1011.3 - 22.0 - - - - - - -
 
Date/Time
EST
Temp

°C
Wind Pressure Rain
since 9am
mm
Weather Cloud Vis
km
Sea
Height
m
Swell
Dir
 
Speed
knots
Gust
knots
hPa Trend Height
m
Period
s
Dir
28/11:30pm 9.6 W 9 17 1011.3 - 22.0 - - - - - - -
28/11:00pm 9.4 W 9 15 1011.4 - 22.0 - - - - - - -
28/10:30pm 9.5 W 8 17 1011.2 - 22.0 - - - - - - -

Other Formats:

Comma delimited format used in spreadsheet applications
http://www.bom.gov.au/fwo/IDV60701/IDV60701.94935.axf

JavaScript Object Notation format (JSON) in row-major order
http://www.bom.gov.au/fwo/IDV60701/IDV60701.94935.json